Time;durP1;ratioP1;P1;durP2;ratioP2;P2;SDS_P1;SDS_P2;PMS_P1;PMS_P2;Temp;Humidity;BMP_temperature;BMP_pressure;BME280_temperature;BME280_humidity;BME280_pressure;Samples;Min_cycle;Max_cycle;Signal;HPM_P1;HPM_P2
2021/10/10 00:00:37;;;;;;;28.08;12.57;;;;;;;10.35;100.00;102315.91;5095560;28;20342;-72
2021/10/10 00:03:23;;;;;;;23.58;13.02;;;;;;;9.84;100.00;102308.38;5096327;28;20020;-72
2021/10/10 00:06:09;;;;;;;27.02;13.02;;;;;;;9.93;100.00;102308.50;5095256;28;20223;-72
2021/10/10 00:08:55;;;;;;;34.80;13.65;;;;;;;9.76;100.00;102302.19;5095705;28;20036;-73
2021/10/10 00:11:41;;;;;;;26.13;12.90;;;;;;;9.77;100.00;102304.81;5096216;28;20024;-73
2021/10/10 00:14:26;;;;;;;24.15;12.60;;;;;;;9.83;100.00;102299.66;5095175;28;20020;-72
2021/10/10 00:17:12;;;;;;;32.28;13.35;;;;;;;10.12;100.00;102299.97;5095219;28;20452;-72
2021/10/10 00:19:58;;;;;;;26.52;13.05;;;;;;;9.89;100.00;102299.72;5095635;28;20034;-73
2021/10/10 00:22:44;;;;;;;33.28;14.00;;;;;;;9.42;100.00;102293.09;5095754;28;20506;-71
2021/10/10 00:25:30;;;;;;;27.33;13.43;;;;;;;9.32;100.00;102300.78;5095011;28;20106;-74
2021/10/10 00:28:15;;;;;;;29.30;14.32;;;;;;;9.77;100.00;102301.34;5096408;28;20107;-70
2021/10/10 00:31:01;;;;;;;29.42;14.30;;;;;;;9.80;100.00;102298.72;5095697;28;20108;-70
2021/10/10 00:33:47;;;;;;;31.00;14.27;;;;;;;9.46;100.00;102294.88;5095185;28;20043;-70
2021/10/10 00:36:33;;;;;;;28.58;13.95;;;;;;;9.95;100.00;102293.66;5095558;28;20024;-71
2021/10/10 00:39:19;;;;;;;32.38;14.82;;;;;;;9.67;100.00;102292.50;5094919;28;20058;-70
2021/10/10 00:42:06;;;;;;;28.60;13.85;;;;;;;9.61;100.00;102289.81;5094743;28;20189;-71
2021/10/10 00:44:52;;;;;;;31.67;14.93;;;;;;;9.33;100.00;102287.72;5094855;28;20032;-71
2021/10/10 00:47:41;;;;;;;34.20;15.40;;;;;;;9.62;100.00;102291.56;5095065;28;20035;-70
2021/10/10 00:50:29;;;;;;;28.73;14.82;;;;;;;9.27;100.00;102285.03;5095101;28;20039;-71
2021/10/10 00:53:16;;;;;;;29.35;14.88;;;;;;;9.70;100.00;102289.91;5095347;28;20024;-71
2021/10/10 00:56:02;;;;;;;29.65;15.48;;;;;;;9.55;100.00;102284.50;5094902;28;20032;-70
2021/10/10 00:58:49;;;;;;;30.63;13.98;;;;;;;9.21;100.00;102276.25;5095189;28;20093;-71
2021/10/10 01:01:35;;;;;;;27.90;14.75;;;;;;;9.04;100.00;102276.00;5094264;28;20040;-70
2021/10/10 01:04:21;;;;;;;29.92;13.90;;;;;;;9.05;100.00;102264.69;5094437;28;20437;-70
2021/10/10 01:07:07;;;;;;;33.85;14.35;;;;;;;9.14;100.00;102264.84;5094576;28;20040;-71
2021/10/10 01:09:53;;;;;;;34.85;13.02;;;;;;;9.08;100.00;102266.47;5094280;28;20140;-70
2021/10/10 01:12:40;;;;;;;33.75;12.77;;;;;;;8.95;100.00;102259.31;5080553;28;20067;-71
2021/10/10 01:15:28;;;;;;;23.63;12.18;;;;;;;9.18;100.00;102257.88;5095144;28;20024;-71
2021/10/10 01:18:22;;;;;;;34.25;12.07;;;;;;;9.10;100.00;102246.47;5095235;28;20459;-71
2021/10/10 01:21:08;;;;;;;25.98;12.85;;;;;;;8.96;100.00;102246.28;5094916;28;20028;-70
2021/10/10 01:23:54;;;;;;;24.15;12.35;;;;;;;8.88;100.00;102250.50;5094672;28;20031;-71
2021/10/10 01:26:40;;;;;;;26.85;12.85;;;;;;;9.03;100.00;102249.84;5094366;28;20089;-70
2021/10/10 01:29:25;;;;;;;43.63;13.75;;;;;;;8.81;100.00;102242.59;5095643;28;20386;-70
2021/10/10 01:32:11;;;;;;;32.53;13.20;;;;;;;8.95;100.00;102244.53;5094330;28;20032;-71
2021/10/10 01:34:57;;;;;;;30.27;13.27;;;;;;;8.78;100.00;102245.16;5093782;28;20035;-71
2021/10/10 01:37:43;;;;;;;27.63;13.98;;;;;;;8.97;100.00;102244.56;5093778;28;20101;-71
2021/10/10 01:40:29;;;;;;;27.63;14.65;;;;;;;8.82;100.00;102258.28;5093842;28;20043;-70
2021/10/10 01:43:15;;;;;;;32.10;14.43;;;;;;;8.43;100.00;102249.84;5094268;28;20023;-71
2021/10/10 01:46:01;;;;;;;33.63;14.68;;;;;;;8.44;100.00;102243.75;5094192;28;20122;-70
2021/10/10 01:48:47;;;;;;;30.02;15.38;;;;;;;8.51;100.00;102253.47;5094315;28;20027;-72
2021/10/10 01:51:33;;;;;;;26.95;14.07;;;;;;;8.32;100.00;102248.78;5093884;28;20110;-70
2021/10/10 01:54:18;;;;;;;32.67;14.35;;;;;;;8.20;100.00;102255.53;5093338;28;20469;-71
2021/10/10 01:57:04;;;;;;;36.22;14.20;;;;;;;8.41;100.00;102250.69;5094685;28;20097;-70
2021/10/10 01:59:50;;;;;;;29.20;13.50;;;;;;;8.29;100.00;102255.72;5094348;28;20039;-70
2021/10/10 02:02:36;;;;;;;38.90;13.77;;;;;;;8.23;100.00;102253.88;5093285;28;20031;-71
2021/10/10 02:05:22;;;;;;;27.48;12.98;;;;;;;8.77;100.00;102251.25;5094384;28;20115;-70
2021/10/10 02:08:07;;;;;;;27.77;12.18;;;;;;;8.48;100.00;102257.78;5093481;28;20071;-71
2021/10/10 02:10:53;;;;;;;36.40;12.93;;;;;;;8.29;100.00;102253.09;5094076;28;20026;-70
2021/10/10 02:13:39;;;;;;;25.35;12.65;;;;;;;8.03;100.00;102257.84;5093981;28;20024;-70
2021/10/10 02:16:25;;;;;;;30.45;12.65;;;;;;;8.26;100.00;102263.50;5093859;28;20114;-71
2021/10/10 02:19:10;;;;;;;26.65;11.90;;;;;;;8.58;100.00;102259.66;5093890;28;20456;-70
2021/10/10 02:21:56;;;;;;;27.52;12.45;;;;;;;8.55;100.00;102251.75;5094263;28;20375;-69
2021/10/10 02:24:42;;;;;;;29.88;13.20;;;;;;;8.43;100.00;102257.69;5094053;28;20020;-70
2021/10/10 02:27:28;;;;;;;30.92;14.35;;;;;;;8.28;100.00;102254.81;5094228;28;20127;-69
2021/10/10 02:30:14;;;;;;;31.90;13.32;;;;;;;8.63;100.00;102256.25;5093698;28;20035;-70
2021/10/10 02:33:00;;;;;;;30.70;14.10;;;;;;;8.25;100.00;102253.91;5093982;28;20039;-70
2021/10/10 02:35:46;;;;;;;30.20;14.43;;;;;;;8.34;100.00;102251.44;5093395;28;20452;-70
2021/10/10 02:38:31;;;;;;;28.92;14.02;;;;;;;8.09;100.00;102247.53;5094384;28;20024;-70
2021/10/10 02:41:17;;;;;;;31.23;13.88;;;;;;;8.30;100.00;102247.91;5093227;28;20028;-70
2021/10/10 02:44:04;;;;;;;29.40;13.40;;;;;;;8.36;100.00;102242.78;5094039;28;20032;-70
2021/10/10 02:46:49;;;;;;;27.83;13.57;;;;;;;8.36;100.00;102248.00;5092972;28;20477;-70
2021/10/10 02:49:35;;;;;;;33.17;13.93;;;;;;;8.30;100.00;102247.00;5094476;28;20111;-70
2021/10/10 02:52:21;;;;;;;35.55;12.75;;;;;;;8.18;100.00;102238.94;5098068;28;20074;-71
2021/10/10 02:55:08;;;;;;;34.63;13.02;;;;;;;8.30;100.00;102249.63;5096712;28;20051;-69
2021/10/10 02:57:53;;;;;;;30.15;12.48;;;;;;;8.25;100.00;102240.84;5097304;28;20016;-70
2021/10/10 03:00:40;;;;;;;32.45;12.95;;;;;;;8.33;100.00;102240.09;5096747;28;20027;-69
2021/10/10 03:03:26;;;;;;;26.17;12.20;;;;;;;8.31;100.00;102243.53;5097834;28;20028;-70
2021/10/10 03:06:11;;;;;;;27.52;12.57;;;;;;;8.14;100.00;102242.38;5097198;28;20139;-70
2021/10/10 03:08:57;;;;;;;26.80;12.13;;;;;;;8.08;100.00;102243.13;5097138;28;20035;-70
2021/10/10 03:11:43;;;;;;;30.20;12.50;;;;;;;8.29;100.00;102246.16;5097454;28;20023;-71
2021/10/10 03:14:29;;;;;;;29.50;12.48;;;;;;;8.32;100.00;102243.56;5096953;28;20024;-70
2021/10/10 03:17:14;;;;;;;24.90;11.82;;;;;;;8.37;100.00;102260.19;5096998;28;20169;-70
2021/10/10 03:20:00;;;;;;;23.73;12.25;;;;;;;8.13;100.00;102251.94;5097443;28;20020;-70
2021/10/10 03:22:46;;;;;;;30.67;12.20;;;;;;;8.41;100.00;102254.16;5097567;28;20393;-73
2021/10/10 03:25:31;;;;;;;31.48;12.13;;;;;;;8.69;100.00;102248.50;5096776;28;20372;-71
2021/10/10 03:28:17;;;;;;;25.08;11.70;;;;;;;8.88;100.00;102254.88;5097032;28;20024;-70
2021/10/10 03:31:04;;;;;;;24.05;12.40;;;;;;;8.63;100.00;102250.13;5096050;28;20107;-70
2021/10/10 03:33:49;;;;;;;23.45;11.48;;;;;;;8.36;100.00;102253.22;5096735;28;20027;-70
2021/10/10 03:36:35;;;;;;;23.63;11.07;;;;;;;8.65;100.00;102257.16;5096078;28;20106;-70
2021/10/10 03:39:21;;;;;;;24.48;11.98;;;;;;;8.65;100.00;102266.72;5096090;28;20024;-70
2021/10/10 03:42:07;;;;;;;25.65;11.13;;;;;;;8.78;100.00;102261.72;5097163;28;20032;-73
2021/10/10 03:44:53;;;;;;;25.67;11.52;;;;;;;8.70;100.00;102271.19;5096795;28;20024;-71
2021/10/10 03:47:40;;;;;;;31.75;11.38;;;;;;;8.89;100.00;102269.72;5096868;28;20035;-71
2021/10/10 03:50:26;;;;;;;30.80;11.93;;;;;;;8.87;100.00;102264.44;5095965;28;20401;-69
2021/10/10 03:53:12;;;;;;;28.50;12.57;;;;;;;8.58;100.00;102268.38;5097235;28;20024;-70
2021/10/10 03:55:58;;;;;;;26.25;11.45;;;;;;;8.37;100.00;102267.16;5096250;28;20093;-71
2021/10/10 03:58:43;;;;;;;23.02;11.57;;;;;;;8.67;100.00;102263.28;5096559;28;20032;-71
2021/10/10 04:01:29;;;;;;;26.60;10.68;;;;;;;8.36;100.00;102260.19;5095204;28;20027;-71
2021/10/10 04:04:16;;;;;;;26.10;12.00;;;;;;;8.58;100.00;102267.50;5095804;28;20414;-71
2021/10/10 04:07:03;;;;;;;28.13;11.55;;;;;;;8.61;100.00;102264.94;5095718;28;20039;-70
2021/10/10 04:09:48;;;;;;;25.00;11.70;;;;;;;8.47;100.00;102259.50;5096158;28;20403;-70
2021/10/10 04:12:34;;;;;;;28.85;11.38;;;;;;;8.75;100.00;102253.81;5096014;28;20047;-71
2021/10/10 04:15:20;;;;;;;19.58;10.80;;;;;;;8.77;100.00;102252.09;5096311;28;20454;-71
2021/10/10 04:18:06;;;;;;;24.33;10.95;;;;;;;8.78;100.00;102251.25;5095968;28;20020;-70
2021/10/10 04:20:52;;;;;;;26.10;11.50;;;;;;;8.59;100.00;102249.22;5095902;28;20530;-70
2021/10/10 04:23:38;;;;;;;25.67;11.10;;;;;;;8.89;100.00;102243.56;5095649;28;20055;-71
2021/10/10 04:26:24;;;;;;;25.95;11.77;;;;;;;9.30;100.00;102251.09;5094369;28;20509;-71
2021/10/10 04:29:09;;;;;;;27.00;11.48;;;;;;;9.01;100.00;102243.72;5096124;28;20035;-71
2021/10/10 04:31:55;;;;;;;21.85;10.73;;;;;;;8.83;100.00;102251.31;5094812;28;20027;-70
2021/10/10 04:34:41;;;;;;;29.60;10.75;;;;;;;8.42;100.00;102253.31;5095535;28;20402;-71
2021/10/10 04:37:27;;;;;;;24.80;11.40;;;;;;;8.47;100.00;102256.00;5095432;28;20013;-70
2021/10/10 04:40:13;;;;;;;22.58;12.00;;;;;;;8.32;100.00;102240.09;5095040;28;20460;-71
2021/10/10 04:42:58;;;;;;;32.53;12.10;;;;;;;8.31;100.00;102246.16;5094930;28;20149;-70
2021/10/10 04:45:44;;;;;;;27.67;12.07;;;;;;;8.35;100.00;102247.97;5095188;28;20024;-70
2021/10/10 04:48:30;;;;;;;29.80;13.32;;;;;;;8.23;100.00;102240.81;5094873;28;20085;-70
2021/10/10 04:51:15;;;;;;;30.88;13.32;;;;;;;8.40;100.00;102243.72;5094921;28;20020;-71
2021/10/10 04:54:01;;;;;;;34.05;13.02;;;;;;;8.38;100.00;102245.41;5095285;28;20032;-71
2021/10/10 04:56:47;;;;;;;28.83;12.93;;;;;;;8.66;100.00;102242.34;5094350;28;20088;-70
2021/10/10 04:59:33;;;;;;;29.75;13.60;;;;;;;8.37;100.00;102243.66;5094839;28;20036;-71
2021/10/10 05:02:21;;;;;;;29.77;13.68;;;;;;;8.81;100.00;102247.81;5094625;28;20422;-70
2021/10/10 05:05:07;;;;;;;25.02;12.75;;;;;;;8.50;100.00;102254.31;5095118;28;20043;-70
2021/10/10 05:07:53;;;;;;;24.92;12.73;;;;;;;8.43;100.00;102259.41;5094550;28;20101;-71
2021/10/10 05:10:38;;;;;;;24.73;12.50;;;;;;;8.40;100.00;102264.59;5095435;28;20039;-70
2021/10/10 05:13:24;;;;;;;28.25;11.88;;;;;;;8.24;100.00;102270.44;5093950;28;20031;-71
2021/10/10 05:16:10;;;;;;;29.48;11.23;;;;;;;8.20;100.00;102271.19;5095197;28;20016;-71
2021/10/10 05:18:55;;;;;;;24.42;11.88;;;;;;;8.82;100.00;102284.44;5094329;28;20020;-70
2021/10/10 05:21:41;;;;;;;24.23;11.05;;;;;;;8.32;100.00;102284.50;5093889;28;20038;-70
2021/10/10 05:24:27;;;;;;;26.98;11.43;;;;;;;8.45;100.00;102287.31;5094604;28;20027;-70
2021/10/10 05:27:12;;;;;;;25.20;12.95;;;;;;;8.68;100.00;102282.47;5094872;28;20024;-71
2021/10/10 05:29:58;;;;;;;26.70;12.15;;;;;;;8.66;100.00;102277.22;5094788;28;20038;-70
2021/10/10 05:32:44;;;;;;;28.65;11.52;;;;;;;8.75;100.00;102276.44;5094401;28;20483;-71
2021/10/10 05:35:30;;;;;;;31.63;14.15;;;;;;;8.85;100.00;102278.34;5084461;28;20031;-71
2021/10/10 05:38:16;;;;;;;31.98;16.33;;;;;;;8.34;100.00;102270.59;5093627;28;20110;-71
2021/10/10 05:41:02;;;;;;;34.83;16.52;;;;;;;8.35;100.00;102266.25;5094485;28;20031;-71
2021/10/10 05:43:48;;;;;;;35.55;18.65;;;;;;;8.51;100.00;102271.75;5094362;28;20020;-71
2021/10/10 05:46:33;;;;;;;31.10;14.30;;;;;;;8.22;100.00;102274.75;5094137;28;20051;-70
2021/10/10 05:49:19;;;;;;;28.92;16.17;;;;;;;8.41;100.00;102276.81;5094325;28;20035;-70
2021/10/10 05:52:08;;;;;;;29.98;13.07;;;;;;;8.33;100.00;102281.03;5094067;28;20119;-71
2021/10/10 05:54:54;;;;;;;32.25;15.63;;;;;;;8.33;100.00;102283.63;5093452;28;20463;-70
2021/10/10 06:00:29;;;;;;;25.48;10.75;;;;;;;8.36;100.00;102283.69;5093936;28;20031;-71
2021/10/10 06:03:14;;;;;;;23.88;11.50;;;;;;;8.26;100.00;102292.22;5093734;28;20136;-71
2021/10/10 06:06:00;;;;;;;21.92;10.65;;;;;;;8.23;100.00;102284.31;5093746;28;20093;-71
2021/10/10 06:08:46;;;;;;;26.20;12.63;;;;;;;8.28;100.00;102290.53;5093924;28;20059;-71
2021/10/10 06:11:33;;;;;;;28.10;11.77;;;;;;;8.67;100.00;102291.13;5093688;28;20042;-71
2021/10/10 06:14:19;;;;;;;31.48;12.38;;;;;;;8.67;100.00;102292.03;5093370;28;20418;-70
2021/10/10 06:17:06;;;;;;;52.35;30.25;;;;;;;8.38;100.00;102295.03;5093913;28;20513;-70
2021/10/10 06:19:52;;;;;;;31.52;19.65;;;;;;;8.64;100.00;102296.34;5094512;28;20031;-70
2021/10/10 06:22:38;;;;;;;31.88;14.40;;;;;;;9.06;100.00;102287.38;5094018;28;20024;-71
2021/10/10 06:25:24;;;;;;;24.83;11.70;;;;;;;9.22;100.00;102291.06;5098740;28;20059;-69
2021/10/10 06:28:09;;;;;;;43.40;25.60;;;;;;;8.79;100.00;102293.94;5098026;28;20042;-71
2021/10/10 06:30:55;;;;;;;32.13;13.07;;;;;;;8.59;100.00;102298.88;5097989;28;20083;-71
2021/10/10 06:33:41;;;;;;;35.40;14.25;;;;;;;8.56;100.00;102293.59;5099060;28;20024;-70
2021/10/10 06:36:26;;;;;;;31.60;13.52;;;;;;;8.48;100.00;102291.72;5098434;28;20089;-70
2021/10/10 06:39:12;;;;;;;30.85;13.45;;;;;;;8.68;100.00;102296.38;5097768;28;20030;-70
2021/10/10 06:41:58;;;;;;;32.70;13.68;;;;;;;8.57;100.00;102290.09;5097824;28;20047;-71
2021/10/10 06:44:44;;;;;;;30.50;18.75;;;;;;;8.98;100.00;102294.25;5096931;28;20035;-71
2021/10/10 06:47:29;;;;;;;44.63;28.40;;;;;;;9.34;100.00;102299.06;5096782;28;20034;-72
2021/10/10 06:50:15;;;;;;;24.30;12.93;;;;;;;9.27;100.00;102298.13;5097521;28;20020;-71
2021/10/10 06:53:01;;;;;;;30.48;12.93;;;;;;;9.26;100.00;102291.13;5097872;28;20439;-71
2021/10/10 06:55:47;;;;;;;28.45;13.18;;;;;;;9.02;100.00;102297.75;5096589;28;20044;-70
2021/10/10 06:58:33;;;;;;;24.15;12.80;;;;;;;9.59;100.00;102295.88;5097571;28;20035;-70
2021/10/10 07:01:19;;;;;;;26.13;13.95;;;;;;;10.18;100.00;102292.19;5097456;28;20043;-71
2021/10/10 07:04:05;;;;;;;32.47;15.00;;;;;;;10.28;100.00;102296.63;5097667;28;20036;-71
2021/10/10 07:06:50;;;;;;;38.10;15.52;;;;;;;10.21;100.00;102291.34;5096835;28;20472;-70
2021/10/10 07:09:36;;;;;;;34.25;14.05;;;;;;;10.08;100.00;102290.34;5097648;28;20028;-70
2021/10/10 07:12:22;;;;;;;26.92;13.20;;;;;;;10.02;100.00;102293.72;5097071;28;20036;-70
2021/10/10 07:15:10;;;;;;;30.60;14.10;;;;;;;9.86;100.00;102288.34;5097344;28;20032;-71
2021/10/10 07:18:00;;;;;;;27.15;13.40;;;;;;;9.27;100.00;102292.00;5096998;28;20032;-71
2021/10/10 07:26:38;;;;;;;31.85;15.65;;;;;;;9.57;100.00;102277.53;5096618;28;20032;-71
2021/10/10 07:29:24;;;;;;;35.15;15.52;;;;;;;9.46;100.00;102278.28;5097472;28;20103;-71
2021/10/10 07:32:10;;;;;;;41.28;18.25;;;;;;;9.53;100.00;102274.91;5096601;28;20043;-72
2021/10/10 07:34:55;;;;;;;31.42;15.38;;;;;;;10.04;100.00;102281.56;5095575;28;20108;-71
2021/10/10 07:37:41;;;;;;;31.17;15.65;;;;;;;9.55;100.00;102279.28;5097083;28;20415;-71
2021/10/10 07:40:27;;;;;;;29.35;15.27;;;;;;;9.48;100.00;102285.31;5096499;28;20453;-71
2021/10/10 07:43:13;;;;;;;33.65;14.18;;;;;;;8.95;100.00;102277.63;5095834;28;20035;-69
2021/10/10 07:46:06;;;;;;;33.70;15.48;;;;;;;9.00;100.00;102278.53;5096060;28;20036;-70
2021/10/10 07:48:52;;;;;;;31.33;15.20;;;;;;;9.36;100.00;102273.78;5097236;28;20333;-71
2021/10/10 07:51:38;;;;;;;26.23;14.35;;;;;;;9.55;100.00;102278.41;5096440;28;20028;-71
2021/10/10 07:54:24;;;;;;;31.73;14.15;;;;;;;9.89;100.00;102283.16;5096761;28;20038;-72
2021/10/10 07:57:10;;;;;;;33.55;14.15;;;;;;;10.27;100.00;102280.91;5096371;28;20357;-72
2021/10/10 07:59:56;;;;;;;26.35;13.85;;;;;;;10.02;100.00;102274.53;5096445;28;20464;-72
2021/10/10 08:02:55;;;;;;;32.47;15.00;;;;;;;9.93;100.00;102277.94;5096102;28;20169;-71
2021/10/10 08:05:43;;;;;;;26.88;13.20;;;;;;;10.79;100.00;102281.31;5081164;28;20028;-70
2021/10/10 08:08:29;;;;;;;22.00;12.57;;;;;;;10.90;100.00;102273.50;5095745;28;20113;-71
2021/10/10 08:11:14;;;;;;;29.00;14.00;;;;;;;10.89;100.00;102277.00;5096197;28;20024;-72
2021/10/10 08:14:00;;;;;;;28.27;14.40;;;;;;;11.05;100.00;102277.09;5095940;28;20427;-72
2021/10/10 08:16:46;;;;;;;22.90;12.85;;;;;;;11.25;100.00;102278.06;5094924;28;20074;-71
2021/10/10 08:19:32;;;;;;;25.45;11.98;;;;;;;11.61;100.00;102267.75;5095920;28;20036;-71
2021/10/10 08:22:18;;;;;;;25.48;13.27;;;;;;;10.71;100.00;102269.91;5095933;28;20090;-70
2021/10/10 08:25:11;;;;;;;24.70;12.20;;;;;;;10.49;100.00;102261.88;5080312;28;20035;-71
2021/10/10 08:27:56;;;;;;;26.73;12.75;;;;;;;10.33;100.00;102263.47;5079959;28;20043;-71
2021/10/10 08:30:42;;;;;;;25.23;13.23;;;;;;;10.35;100.00;102258.25;5094902;28;20036;-71
2021/10/10 08:33:28;;;;;;;29.50;13.77;;;;;;;9.94;100.00;102260.50;5094596;28;20480;-71
2021/10/10 08:36:14;;;;;;;28.90;13.23;;;;;;;10.63;100.00;102263.72;5095431;28;20118;-70
2021/10/10 08:39:00;;;;;;;30.65;13.90;;;;;;;10.54;100.00;102266.28;5096032;28;20024;-71
2021/10/10 08:41:46;;;;;;;31.88;15.05;;;;;;;10.37;100.00;102275.75;5095573;28;20020;-70
2021/10/10 08:44:35;;;;;;;36.00;17.80;;;;;;;10.94;100.00;102264.78;5081480;28;20032;-70
2021/10/10 08:47:23;;;;;;;25.58;13.68;;;;;;;11.11;100.00;102269.25;5080003;28;20032;-71
2021/10/10 08:50:17;;;;;;;46.38;19.00;;;;;;;11.18;100.00;102265.81;5095019;28;20024;-70
2021/10/10 08:53:03;;;;;;;36.97;15.20;;;;;;;11.05;100.00;102263.97;5096136;28;20024;-70
2021/10/10 08:55:49;;;;;;;27.73;13.65;;;;;;;11.42;100.00;102273.78;5093722;28;20035;-70
2021/10/10 08:58:41;;;;;;;26.55;13.98;;;;;;;11.14;100.00;102265.78;5095230;28;20025;-71
2021/10/10 09:01:29;;;;;;;28.38;14.43;;;;;;;11.31;100.00;102262.38;5094221;28;20024;-69
2021/10/10 09:04:15;;;;;;;24.45;13.70;;;;;;;11.04;100.00;102262.22;5095871;28;20032;-71
2021/10/10 09:07:00;;;;;;;33.60;12.90;;;;;;;11.10;100.00;102267.53;5097355;28;20052;-71
2021/10/10 09:09:46;;;;;;;21.70;12.60;;;;;;;11.08;100.00;102255.25;5095111;28;20032;-70
2021/10/10 09:12:32;;;;;;;26.90;14.32;;;;;;;12.36;100.00;102269.59;5094210;28;20024;-70
2021/10/10 09:15:20;;;;;;;24.50;11.90;;;;;;;11.34;100.00;102262.38;5095571;28;20487;-72
2021/10/10 09:18:08;;;;;;;25.83;12.10;;;;;;;11.38;100.00;102276.38;5094309;28;20519;-72
2021/10/10 09:20:53;;;;;;;21.35;11.60;;;;;;;11.49;100.00;102272.91;5094116;28;20035;-71
2021/10/10 09:23:39;;;;;;;29.00;12.90;;;;;;;11.73;100.00;102280.03;5080195;28;20027;-72
2021/10/10 09:26:25;;;;;;;25.35;12.18;;;;;;;11.33;100.00;102278.97;5093029;28;20020;-70
2021/10/10 09:29:31;;;;;;;26.40;12.43;;;;;;;11.61;100.00;102270.38;5094872;28;20028;-71
2021/10/10 09:32:26;;;;;;;21.25;11.85;;;;;;;11.43;100.00;102266.78;5079735;28;20060;-70
2021/10/10 09:35:28;;;;;;;25.27;12.70;;;;;;;11.92;100.00;102263.44;5093691;28;20039;-70
2021/10/10 09:38:25;;;;;;;21.85;12.77;;;;;;;12.32;100.00;102268.75;5093264;28;20024;-70
2021/10/10 09:41:47;;;;;;;22.85;11.68;;;;;;;12.36;97.01;102262.59;5094403;28;20020;-71
2021/10/10 09:44:38;;;;;;;29.08;13.30;;;;;;;12.32;96.73;102268.75;5094278;28;20027;-71
2021/10/10 09:47:23;;;;;;;24.98;12.80;;;;;;;12.55;97.60;102271.34;5093182;28;20111;-71
2021/10/10 09:50:09;;;;;;;22.58;12.20;;;;;;;12.22;96.49;102271.38;5093988;28;20024;-72
2021/10/10 09:53:18;;;;;;;34.78;15.35;;;;;;;12.47;94.93;102267.84;5080334;28;20096;-70
2021/10/10 09:56:08;;;;;;;27.17;16.85;;;;;;;12.50;91.85;102271.34;5092781;28;20070;-71
2021/10/10 09:58:53;;;;;;;24.80;12.57;;;;;;;12.17;98.34;102284.50;5092840;28;20023;-71
2021/10/10 10:01:39;;;;;;;21.70;12.15;;;;;;;12.56;90.78;102271.34;5094100;28;20043;-71
2021/10/10 10:04:26;;;;;;;26.55;11.68;;;;;;;12.53;93.58;102271.34;5093294;28;20103;-70
2021/10/10 10:07:15;;;;;;;24.98;12.73;;;;;;;12.27;94.72;102269.59;5093249;28;20050;-72
2021/10/10 10:10:02;;;;;;;24.85;12.43;;;;;;;12.50;92.93;102267.84;5094519;28;20044;-72
2021/10/10 10:12:50;;;;;;;31.55;12.20;;;;;;;12.40;93.85;102269.63;5093740;28;20028;-71
2021/10/10 10:15:36;;;;;;;29.90;17.35;;;;;;;12.67;94.24;102261.72;5080433;28;20437;-71
2021/10/10 10:18:22;;;;;;;22.17;12.48;;;;;;;13.26;91.17;102269.47;5094130;28;20024;-71
2021/10/10 10:21:09;;;;;;;20.20;12.05;;;;;;;12.70;89.53;102260.81;5093994;28;20119;-71
2021/10/10 10:24:00;;;;;;;25.50;12.45;;;;;;;12.56;90.98;102265.22;5094115;28;20020;-71
2021/10/10 10:26:45;;;;;;;24.48;11.23;;;;;;;12.85;89.38;102248.50;5093710;28;20027;-70
2021/10/10 10:29:33;;;;;;;26.55;13.30;;;;;;;12.78;88.85;102243.28;5079058;28;20448;-71
2021/10/10 10:32:20;;;;;;;19.92;10.88;;;;;;;12.79;88.12;102248.53;5093519;28;20028;-71
2021/10/10 10:35:11;;;;;;;25.60;11.65;;;;;;;12.77;90.39;102245.03;5093721;28;20024;-71
2021/10/10 10:37:57;;;;;;;27.80;10.80;;;;;;;12.76;89.40;102253.78;5092560;28;20020;-71
2021/10/10 10:40:42;;;;;;;21.65;12.07;;;;;;;12.88;89.02;102245.00;5093663;28;20024;-71
2021/10/10 10:43:35;;;;;;;20.00;11.35;;;;;;;12.95;87.88;102250.22;5094682;28;20032;-72
2021/10/10 10:46:21;;;;;;;23.75;10.68;;;;;;;13.56;86.38;102241.25;5092722;28;20031;-71
2021/10/10 10:49:06;;;;;;;26.58;12.90;;;;;;;14.19;82.85;102251.34;5093590;28;20024;-72
2021/10/10 10:52:29;;;;;;;25.27;11.50;;;;;;;14.13;82.28;102240.84;5079795;28;20085;-71
2021/10/10 10:55:20;;;;;;;21.45;11.10;;;;;;;14.21;81.89;102233.78;5093022;28;20020;-71
2021/10/10 10:58:09;;;;;;;25.95;10.55;;;;;;;13.65;84.49;102230.66;5093955;28;20032;-71
2021/10/10 11:01:05;;;;;;;29.48;12.43;;;;;;;13.20;88.91;102224.75;5093294;28;20057;-71
2021/10/10 11:03:50;;;;;;;34.22;12.27;;;;;;;13.49;89.31;102222.84;5094262;28;20024;-71
2021/10/10 11:06:56;;;;;;;33.10;12.00;;;;;;;13.23;93.46;102212.44;5077978;28;20131;-71
2021/10/10 11:09:45;;;;;;;23.88;10.88;;;;;;;13.50;92.28;102207.03;5089375;28;20525;-70
2021/10/10 11:12:31;;;;;;;24.60;10.70;;;;;;;14.18;91.48;102207.41;5096824;28;20050;-71
2021/10/10 11:15:17;;;;;;;25.05;12.52;;;;;;;13.26;95.30;102207.16;5097274;28;20031;-71
2021/10/10 11:18:02;;;;;;;28.73;13.20;;;;;;;13.33;97.11;102203.63;5097052;28;20110;-71
2021/10/10 11:21:01;;;;;;;26.80;15.25;;;;;;;13.90;94.44;102203.25;5096871;28;20074;-71
2021/10/10 11:23:50;;;;;;;31.50;15.88;;;;;;;14.01;94.14;102197.91;5096956;28;20032;-71
2021/10/10 11:26:37;;;;;;;32.38;12.98;;;;;;;13.86;94.62;102198.88;5096676;28;20102;-70
2021/10/10 11:29:23;;;;;;;24.65;11.05;;;;;;;14.27;90.93;102196.81;5096744;28;20020;-70
2021/10/10 11:32:09;;;;;;;26.48;10.95;;;;;;;14.19;91.74;102188.06;5095289;28;20475;-71
2021/10/10 11:34:56;;;;;;;26.58;11.52;;;;;;;14.02;95.47;102184.72;5096279;28;20035;-70
2021/10/10 11:37:42;;;;;;;30.90;12.05;;;;;;;13.91;95.69;102181.28;5096403;28;20104;-70
2021/10/10 11:40:28;;;;;;;28.58;13.02;;;;;;;14.19;96.44;102174.03;5096642;28;20050;-71
2021/10/10 11:43:21;;;;;;;23.33;11.07;;;;;;;14.34;95.95;102166.88;5096675;28;20035;-71
2021/10/10 11:46:07;;;;;;;38.83;11.10;;;;;;;14.38;93.42;102159.78;5096434;28;20035;-71
2021/10/10 11:48:55;;;;;;;22.88;11.20;;;;;;;13.75;99.92;102161.22;5096179;28;20467;-70
2021/10/10 11:51:47;;;;;;;22.63;9.10;;;;;;;14.00;98.55;102154.00;5096662;28;20350;-70
2021/10/10 11:54:41;;;;;;;27.65;9.88;;;;;;;13.69;100.00;102157.75;5097196;28;20042;-71
2021/10/10 11:57:28;;;;;;;30.58;10.85;;;;;;;14.07;100.00;102158.34;5096733;28;20077;-71
2021/10/10 12:00:19;;;;;;;25.75;11.35;;;;;;;13.96;100.00;102155.78;5081745;28;20056;-71
2021/10/10 12:03:05;;;;;;;25.10;10.60;;;;;;;14.54;100.00;102154.34;5095683;28;20028;-70
2021/10/10 12:05:50;;;;;;;26.30;10.07;;;;;;;14.68;98.01;102156.84;5096185;28;20023;-72
2021/10/10 12:08:36;;;;;;;25.90;9.80;;;;;;;14.56;98.89;102152.56;5095945;28;20031;-74
2021/10/10 12:11:22;;;;;;;26.30;10.88;;;;;;;14.44;98.48;102144.78;5096217;28;20042;-72
2021/10/10 12:14:08;;;;;;;25.25;10.80;;;;;;;14.39;100.00;102151.88;5095750;28;20024;-71
2021/10/10 12:16:53;;;;;;;33.80;11.02;;;;;;;14.61;99.81;102150.78;5094874;28;20038;-71
2021/10/10 12:19:43;;;;;;;25.17;9.90;;;;;;;14.80;99.39;102146.16;5096392;28;20040;-71
2021/10/10 12:22:29;;;;;;;26.80;9.57;;;;;;;14.70;98.87;102150.66;5095821;28;20356;-71
2021/10/10 12:25:31;;;;;;;23.58;9.93;;;;;;;14.50;99.88;102146.47;5095577;28;20038;-70
2021/10/10 12:28:19;;;;;;;22.52;9.20;;;;;;;14.70;98.99;102145.38;5094894;28;20021;-71
2021/10/10 12:31:05;;;;;;;23.02;10.00;;;;;;;14.87;99.91;102141.66;5095045;28;20024;-71
2021/10/10 12:34:09;;;;;;;25.67;9.35;;;;;;;14.54;100.00;102132.38;5095584;28;20053;-70
2021/10/10 12:36:55;;;;;;;22.52;8.82;;;;;;;14.60;100.00;102127.91;5081249;28;20024;-71
2021/10/10 12:39:41;;;;;;;25.70;8.90;;;;;;;14.58;100.00;102113.88;5095502;28;20028;-71
2021/10/10 12:42:47;;;;;;;22.38;9.00;;;;;;;14.58;100.00;102126.16;5090636;28;20098;-72
2021/10/10 12:45:34;;;;;;;21.23;9.13;;;;;;;14.77;100.00;102127.72;5096624;28;20032;-71